sensor_id;sensor_type;location;lat;lon;timestamp;P1;durP1;ratioP1;P2;durP2;ratioP2
78489;SDS011;67776;52.012;4.736;2024-02-16T00:00:43;7.53;;;3.50;;
78489;SDS011;67776;52.012;4.736;2024-02-16T00:03:09;9.02;;;3.65;;
78489;SDS011;67776;52.012;4.736;2024-02-16T00:05:35;9.35;;;3.80;;
78489;SDS011;67776;52.012;4.736;2024-02-16T00:08:01;8.40;;;3.83;;
78489;SDS011;67776;52.012;4.736;2024-02-16T00:10:28;9.47;;;4.00;;
78489;SDS011;67776;52.012;4.736;2024-02-16T00:12:53;9.13;;;3.90;;
78489;SDS011;67776;52.012;4.736;2024-02-16T00:15:19;8.50;;;3.90;;
78489;SDS011;67776;52.012;4.736;2024-02-16T00:17:44;10.40;;;3.93;;
78489;SDS011;67776;52.012;4.736;2024-02-16T00:20:10;8.48;;;3.95;;
78489;SDS011;67776;52.012;4.736;2024-02-16T00:22:37;8.30;;;3.80;;
78489;SDS011;67776;52.012;4.736;2024-02-16T00:25:03;7.30;;;3.80;;
78489;SDS011;67776;52.012;4.736;2024-02-16T00:27:28;7.90;;;4.00;;
78489;SDS011;67776;52.012;4.736;2024-02-16T00:29:54;7.93;;;3.97;;
78489;SDS011;67776;52.012;4.736;2024-02-16T00:32:19;9.17;;;4.00;;
78489;SDS011;67776;52.012;4.736;2024-02-16T00:34:45;7.23;;;3.80;;
78489;SDS011;67776;52.012;4.736;2024-02-16T00:37:10;8.60;;;4.13;;
78489;SDS011;67776;52.012;4.736;2024-02-16T00:39:37;9.00;;;4.40;;
78489;SDS011;67776;52.012;4.736;2024-02-16T00:42:05;7.97;;;4.00;;
78489;SDS011;67776;52.012;4.736;2024-02-16T00:44:31;8.57;;;4.10;;
78489;SDS011;67776;52.012;4.736;2024-02-16T00:46:57;9.95;;;4.30;;
78489;SDS011;67776;52.012;4.736;2024-02-16T00:49:23;7.75;;;4.18;;
78489;SDS011;67776;52.012;4.736;2024-02-16T00:51:48;10.20;;;4.90;;
78489;SDS011;67776;52.012;4.736;2024-02-16T00:54:15;12.45;;;4.50;;
78489;SDS011;67776;52.012;4.736;2024-02-16T00:56:40;8.27;;;4.70;;
78489;SDS011;67776;52.012;4.736;2024-02-16T00:59:06;11.07;;;4.67;;
78489;SDS011;67776;52.012;4.736;2024-02-16T01:01:33;9.20;;;4.50;;
78489;SDS011;67776;52.012;4.736;2024-02-16T01:04:00;9.48;;;4.47;;
78489;SDS011;67776;52.012;4.736;2024-02-16T01:06:25;7.77;;;4.03;;
78489;SDS011;67776;52.012;4.736;2024-02-16T01:08:51;7.70;;;4.27;;
78489;SDS011;67776;52.012;4.736;2024-02-16T01:11:16;7.93;;;4.23;;
78489;SDS011;67776;52.012;4.736;2024-02-16T01:13:41;9.70;;;4.43;;
78489;SDS011;67776;52.012;4.736;2024-02-16T01:16:08;8.43;;;4.30;;
78489;SDS011;67776;52.012;4.736;2024-02-16T01:18:34;9.77;;;4.10;;
78489;SDS011;67776;52.012;4.736;2024-02-16T01:21:01;8.10;;;3.78;;
78489;SDS011;67776;52.012;4.736;2024-02-16T01:23:28;9.53;;;4.07;;
78489;SDS011;67776;52.012;4.736;2024-02-16T01:25:53;7.85;;;4.00;;
78489;SDS011;67776;52.012;4.736;2024-02-16T01:28:19;7.53;;;4.00;;
78489;SDS011;67776;52.012;4.736;2024-02-16T01:30:44;8.33;;;4.10;;
78489;SDS011;67776;52.012;4.736;2024-02-16T01:33:09;10.43;;;4.50;;
78489;SDS011;67776;52.012;4.736;2024-02-16T01:35:35;7.85;;;4.20;;
78489;SDS011;67776;52.012;4.736;2024-02-16T01:38:01;10.47;;;4.67;;
78489;SDS011;67776;52.012;4.736;2024-02-16T01:40:27;8.32;;;4.03;;
78489;SDS011;67776;52.012;4.736;2024-02-16T01:42:53;7.77;;;3.90;;
78489;SDS011;67776;52.012;4.736;2024-02-16T01:45:19;8.90;;;3.95;;
78489;SDS011;67776;52.012;4.736;2024-02-16T01:47:45;8.15;;;4.00;;
78489;SDS011;67776;52.012;4.736;2024-02-16T01:50:12;7.78;;;3.88;;
78489;SDS011;67776;52.012;4.736;2024-02-16T01:52:40;8.50;;;4.00;;
78489;SDS011;67776;52.012;4.736;2024-02-16T01:55:05;7.85;;;3.78;;
78489;SDS011;67776;52.012;4.736;2024-02-16T01:57:35;8.52;;;4.05;;
78489;SDS011;67776;52.012;4.736;2024-02-16T02:00:00;7.97;;;4.20;;
78489;SDS011;67776;52.012;4.736;2024-02-16T02:02:26;8.05;;;4.07;;
78489;SDS011;67776;52.012;4.736;2024-02-16T02:04:52;8.10;;;3.93;;
78489;SDS011;67776;52.012;4.736;2024-02-16T02:07:17;8.77;;;4.40;;
78489;SDS011;67776;52.012;4.736;2024-02-16T02:09:42;8.27;;;3.90;;
78489;SDS011;67776;52.012;4.736;2024-02-16T02:12:09;10.40;;;3.97;;
78489;SDS011;67776;52.012;4.736;2024-02-16T02:14:35;7.70;;;4.38;;
78489;SDS011;67776;52.012;4.736;2024-02-16T02:17:01;11.30;;;5.07;;
78489;SDS011;67776;52.012;4.736;2024-02-16T02:19:27;9.80;;;4.40;;
78489;SDS011;67776;52.012;4.736;2024-02-16T02:21:52;8.70;;;4.03;;
78489;SDS011;67776;52.012;4.736;2024-02-16T02:24:17;10.63;;;3.93;;
78489;SDS011;67776;52.012;4.736;2024-02-16T02:26:43;9.43;;;4.30;;
78489;SDS011;67776;52.012;4.736;2024-02-16T02:29:08;9.50;;;4.30;;
78489;SDS011;67776;52.012;4.736;2024-02-16T02:31:33;8.70;;;4.27;;
78489;SDS011;67776;52.012;4.736;2024-02-16T02:33:59;7.63;;;4.13;;
78489;SDS011;67776;52.012;4.736;2024-02-16T02:36:25;11.03;;;4.70;;
78489;SDS011;67776;52.012;4.736;2024-02-16T02:38:50;8.83;;;3.90;;
78489;SDS011;67776;52.012;4.736;2024-02-16T02:41:16;8.53;;;3.97;;
78489;SDS011;67776;52.012;4.736;2024-02-16T02:43:42;8.98;;;4.25;;
78489;SDS011;67776;52.012;4.736;2024-02-16T02:46:07;9.13;;;4.10;;
78489;SDS011;67776;52.012;4.736;2024-02-16T02:48:33;7.47;;;4.47;;
78489;SDS011;67776;52.012;4.736;2024-02-16T02:50:58;9.20;;;4.25;;
78489;SDS011;67776;52.012;4.736;2024-02-16T02:53:26;8.80;;;4.40;;
78489;SDS011;67776;52.012;4.736;2024-02-16T02:55:53;7.88;;;4.30;;
78489;SDS011;67776;52.012;4.736;2024-02-16T02:58:18;8.83;;;4.50;;
78489;SDS011;67776;52.012;4.736;2024-02-16T03:00:44;8.33;;;4.80;;
78489;SDS011;67776;52.012;4.736;2024-02-16T03:03:09;8.25;;;4.40;;
78489;SDS011;67776;52.012;4.736;2024-02-16T03:05:35;8.97;;;4.30;;
78489;SDS011;67776;52.012;4.736;2024-02-16T03:08:00;9.33;;;4.37;;
78489;SDS011;67776;52.012;4.736;2024-02-16T03:10:26;8.68;;;4.35;;
78489;SDS011;67776;52.012;4.736;2024-02-16T03:12:52;7.97;;;4.40;;
78489;SDS011;67776;52.012;4.736;2024-02-16T03:15:18;9.68;;;4.38;;
78489;SDS011;67776;52.012;4.736;2024-02-16T03:17:44;8.20;;;4.20;;
78489;SDS011;67776;52.012;4.736;2024-02-16T03:20:09;8.20;;;4.30;;
78489;SDS011;67776;52.012;4.736;2024-02-16T03:22:35;9.45;;;4.13;;
78489;SDS011;67776;52.012;4.736;2024-02-16T03:25:00;8.30;;;4.13;;
78489;SDS011;67776;52.012;4.736;2024-02-16T03:27:25;9.10;;;4.30;;
78489;SDS011;67776;52.012;4.736;2024-02-16T03:29:50;7.83;;;4.10;;
78489;SDS011;67776;52.012;4.736;2024-02-16T03:32:16;10.10;;;4.43;;
78489;SDS011;67776;52.012;4.736;2024-02-16T03:34:42;8.50;;;4.40;;
78489;SDS011;67776;52.012;4.736;2024-02-16T03:37:07;9.03;;;4.30;;
78489;SDS011;67776;52.012;4.736;2024-02-16T03:39:33;8.82;;;4.13;;
78489;SDS011;67776;52.012;4.736;2024-02-16T03:41:58;12.63;;;4.47;;
78489;SDS011;67776;52.012;4.736;2024-02-16T03:44:24;8.73;;;4.20;;
78489;SDS011;67776;52.012;4.736;2024-02-16T03:46:49;9.17;;;4.30;;
78489;SDS011;67776;52.012;4.736;2024-02-16T03:49:15;8.90;;;4.15;;
78489;SDS011;67776;52.012;4.736;2024-02-16T03:51:40;9.23;;;4.00;;
78489;SDS011;67776;52.012;4.736;2024-02-16T03:54:06;7.83;;;3.87;;
78489;SDS011;67776;52.012;4.736;2024-02-16T03:56:32;7.83;;;4.17;;
78489;SDS011;67776;52.012;4.736;2024-02-16T03:58:57;8.73;;;3.90;;
78489;SDS011;67776;52.012;4.736;2024-02-16T04:01:23;8.15;;;4.00;;
78489;SDS011;67776;52.012;4.736;2024-02-16T04:03:49;7.37;;;4.13;;
78489;SDS011;67776;52.012;4.736;2024-02-16T04:06:14;8.73;;;4.13;;
78489;SDS011;67776;52.012;4.736;2024-02-16T04:08:39;8.40;;;4.00;;
78489;SDS011;67776;52.012;4.736;2024-02-16T04:11:04;8.03;;;4.07;;
78489;SDS011;67776;52.012;4.736;2024-02-16T04:13:30;8.73;;;4.07;;
78489;SDS011;67776;52.012;4.736;2024-02-16T04:15:57;8.03;;;3.90;;
78489;SDS011;67776;52.012;4.736;2024-02-16T04:18:22;8.95;;;4.60;;
78489;SDS011;67776;52.012;4.736;2024-02-16T04:20:48;10.07;;;4.50;;
78489;SDS011;67776;52.012;4.736;2024-02-16T04:23:13;12.07;;;4.10;;
78489;SDS011;67776;52.012;4.736;2024-02-16T04:25:38;8.90;;;4.63;;
78489;SDS011;67776;52.012;4.736;2024-02-16T04:28:04;9.20;;;4.27;;
78489;SDS011;67776;52.012;4.736;2024-02-16T04:30:29;8.30;;;4.03;;
78489;SDS011;67776;52.012;4.736;2024-02-16T04:32:55;8.70;;;4.37;;
78489;SDS011;67776;52.012;4.736;2024-02-16T04:35:20;8.00;;;4.17;;
78489;SDS011;67776;52.012;4.736;2024-02-16T04:37:45;8.70;;;4.27;;
78489;SDS011;67776;52.012;4.736;2024-02-16T04:40:11;7.80;;;4.10;;
78489;SDS011;67776;52.012;4.736;2024-02-16T04:42:39;9.02;;;4.20;;
78489;SDS011;67776;52.012;4.736;2024-02-16T04:45:07;8.90;;;4.25;;
78489;SDS011;67776;52.012;4.736;2024-02-16T04:47:35;10.30;;;4.20;;
78489;SDS011;67776;52.012;4.736;2024-02-16T04:50:01;7.95;;;4.38;;
78489;SDS011;67776;52.012;4.736;2024-02-16T04:52:26;8.40;;;4.10;;
78489;SDS011;67776;52.012;4.736;2024-02-16T04:54:51;10.33;;;4.60;;
78489;SDS011;67776;52.012;4.736;2024-02-16T04:57:17;8.50;;;4.30;;
78489;SDS011;67776;52.012;4.736;2024-02-16T04:59:42;8.30;;;4.60;;
78489;SDS011;67776;52.012;4.736;2024-02-16T05:02:07;9.00;;;4.33;;
78489;SDS011;67776;52.012;4.736;2024-02-16T05:04:34;9.57;;;4.55;;
78489;SDS011;67776;52.012;4.736;2024-02-16T05:06:59;7.90;;;4.13;;
78489;SDS011;67776;52.012;4.736;2024-02-16T05:09:24;7.73;;;4.53;;
78489;SDS011;67776;52.012;4.736;2024-02-16T05:11:51;9.10;;;4.45;;
78489;SDS011;67776;52.012;4.736;2024-02-16T05:14:16;8.87;;;4.33;;
78489;SDS011;67776;52.012;4.736;2024-02-16T05:16:46;10.60;;;4.80;;
78489;SDS011;67776;52.012;4.736;2024-02-16T05:19:11;9.80;;;4.63;;
78489;SDS011;67776;52.012;4.736;2024-02-16T05:21:37;10.80;;;5.00;;
78489;SDS011;67776;52.012;4.736;2024-02-16T05:24:02;9.93;;;4.93;;
78489;SDS011;67776;52.012;4.736;2024-02-16T05:26:28;9.38;;;4.90;;
78489;SDS011;67776;52.012;4.736;2024-02-16T05:28:53;12.10;;;4.50;;
78489;SDS011;67776;52.012;4.736;2024-02-16T05:31:19;9.83;;;4.50;;
78489;SDS011;67776;52.012;4.736;2024-02-16T05:33:48;10.73;;;4.73;;
78489;SDS011;67776;52.012;4.736;2024-02-16T05:38:49;10.00;;;4.53;;
78489;SDS011;67776;52.012;4.736;2024-02-16T05:41:17;11.33;;;4.90;;
78489;SDS011;67776;52.012;4.736;2024-02-16T05:43:43;11.40;;;4.88;;
78489;SDS011;67776;52.012;4.736;2024-02-16T05:46:13;10.55;;;5.40;;
78489;SDS011;67776;52.012;4.736;2024-02-16T05:48:38;9.65;;;5.03;;
78489;SDS011;67776;52.012;4.736;2024-02-16T05:51:05;9.57;;;4.77;;
78489;SDS011;67776;52.012;4.736;2024-02-16T05:53:31;8.85;;;4.45;;
78489;SDS011;67776;52.012;4.736;2024-02-16T05:55:58;9.38;;;4.88;;
78489;SDS011;67776;52.012;4.736;2024-02-16T05:58:24;9.10;;;5.03;;
78489;SDS011;67776;52.012;4.736;2024-02-16T06:00:49;11.50;;;5.00;;
78489;SDS011;67776;52.012;4.736;2024-02-16T06:03:15;10.30;;;5.10;;
78489;SDS011;67776;52.012;4.736;2024-02-16T06:05:41;9.25;;;4.65;;
78489;SDS011;67776;52.012;4.736;2024-02-16T06:08:09;11.27;;;4.80;;
78489;SDS011;67776;52.012;4.736;2024-02-16T06:10:35;10.93;;;4.82;;
78489;SDS011;67776;52.012;4.736;2024-02-16T06:13:00;10.63;;;4.77;;
78489;SDS011;67776;52.012;4.736;2024-02-16T06:15:25;11.00;;;4.60;;
78489;SDS011;67776;52.012;4.736;2024-02-16T06:17:51;8.48;;;4.68;;
78489;SDS011;67776;52.012;4.736;2024-02-16T06:20:17;8.33;;;4.53;;
78489;SDS011;67776;52.012;4.736;2024-02-16T06:22:43;10.27;;;4.70;;
78489;SDS011;67776;52.012;4.736;2024-02-16T06:25:08;9.33;;;4.80;;
78489;SDS011;67776;52.012;4.736;2024-02-16T06:27:34;9.52;;;4.50;;
78489;SDS011;67776;52.012;4.736;2024-02-16T06:30:00;10.40;;;4.70;;
78489;SDS011;67776;52.012;4.736;2024-02-16T06:32:25;10.65;;;5.07;;
78489;SDS011;67776;52.012;4.736;2024-02-16T06:34:52;10.43;;;4.90;;
78489;SDS011;67776;52.012;4.736;2024-02-16T06:37:17;9.98;;;4.97;;
78489;SDS011;67776;52.012;4.736;2024-02-16T06:39:43;11.10;;;5.10;;
78489;SDS011;67776;52.012;4.736;2024-02-16T06:42:08;9.83;;;5.07;;
78489;SDS011;67776;52.012;4.736;2024-02-16T06:44:36;10.02;;;5.13;;
78489;SDS011;67776;52.012;4.736;2024-02-16T06:47:01;9.60;;;5.00;;
78489;SDS011;67776;52.012;4.736;2024-02-16T06:49:26;11.97;;;4.93;;
78489;SDS011;67776;52.012;4.736;2024-02-16T06:51:52;10.03;;;5.50;;
78489;SDS011;67776;52.012;4.736;2024-02-16T06:54:17;11.07;;;5.37;;
78489;SDS011;67776;52.012;4.736;2024-02-16T06:56:42;10.25;;;4.88;;
78489;SDS011;67776;52.012;4.736;2024-02-16T06:59:09;10.93;;;5.23;;
78489;SDS011;67776;52.012;4.736;2024-02-16T07:01:34;11.23;;;4.93;;
78489;SDS011;67776;52.012;4.736;2024-02-16T07:03:59;10.30;;;4.97;;
78489;SDS011;67776;52.012;4.736;2024-02-16T07:06:26;10.97;;;5.10;;
78489;SDS011;67776;52.012;4.736;2024-02-16T07:08:52;11.38;;;4.70;;
78489;SDS011;67776;52.012;4.736;2024-02-16T07:11:17;11.00;;;5.10;;
78489;SDS011;67776;52.012;4.736;2024-02-16T07:13:43;10.90;;;5.30;;
78489;SDS011;67776;52.012;4.736;2024-02-16T07:16:09;11.23;;;5.13;;
78489;SDS011;67776;52.012;4.736;2024-02-16T07:18:34;10.43;;;5.30;;
78489;SDS011;67776;52.012;4.736;2024-02-16T07:21:00;13.60;;;5.93;;
78489;SDS011;67776;52.012;4.736;2024-02-16T07:23:25;9.68;;;5.18;;
78489;SDS011;67776;52.012;4.736;2024-02-16T07:25:51;10.67;;;5.17;;
78489;SDS011;67776;52.012;4.736;2024-02-16T07:28:20;10.00;;;5.35;;
78489;SDS011;67776;52.012;4.736;2024-02-16T07:30:45;11.23;;;5.60;;
78489;SDS011;67776;52.012;4.736;2024-02-16T07:33:10;11.60;;;5.27;;
78489;SDS011;67776;52.012;4.736;2024-02-16T07:35:36;12.43;;;5.50;;
78489;SDS011;67776;52.012;4.736;2024-02-16T07:38:03;10.90;;;5.07;;
78489;SDS011;67776;52.012;4.736;2024-02-16T07:40:28;10.52;;;5.00;;
78489;SDS011;67776;52.012;4.736;2024-02-16T07:42:54;10.63;;;4.87;;
78489;SDS011;67776;52.012;4.736;2024-02-16T07:45:19;12.83;;;5.30;;
78489;SDS011;67776;52.012;4.736;2024-02-16T07:47:45;13.00;;;5.50;;
78489;SDS011;67776;52.012;4.736;2024-02-16T07:50:11;10.73;;;5.45;;
78489;SDS011;67776;52.012;4.736;2024-02-16T07:52:37;11.70;;;5.10;;
78489;SDS011;67776;52.012;4.736;2024-02-16T07:55:04;13.40;;;5.18;;
78489;SDS011;67776;52.012;4.736;2024-02-16T07:57:30;10.95;;;5.40;;
78489;SDS011;67776;52.012;4.736;2024-02-16T07:59:56;14.37;;;4.93;;
78489;SDS011;67776;52.012;4.736;2024-02-16T08:02:21;11.30;;;4.80;;
78489;SDS011;67776;52.012;4.736;2024-02-16T08:04:47;9.60;;;4.60;;
78489;SDS011;67776;52.012;4.736;2024-02-16T08:07:13;10.00;;;5.30;;
78489;SDS011;67776;52.012;4.736;2024-02-16T08:09:38;10.55;;;5.07;;
78489;SDS011;67776;52.012;4.736;2024-02-16T08:12:04;11.77;;;5.20;;
78489;SDS011;67776;52.012;4.736;2024-02-16T08:14:31;10.73;;;4.78;;
78489;SDS011;67776;52.012;4.736;2024-02-16T08:16:58;8.85;;;5.00;;
78489;SDS011;67776;52.012;4.736;2024-02-16T08:19:23;15.33;;;4.87;;
78489;SDS011;67776;52.012;4.736;2024-02-16T08:21:56;11.18;;;4.80;;
78489;SDS011;67776;52.012;4.736;2024-02-16T08:24:21;10.77;;;4.67;;
78489;SDS011;67776;52.012;4.736;2024-02-16T08:26:46;10.83;;;5.20;;
78489;SDS011;67776;52.012;4.736;2024-02-16T08:29:12;9.50;;;5.10;;
78489;SDS011;67776;52.012;4.736;2024-02-16T08:31:37;10.13;;;4.77;;
78489;SDS011;67776;52.012;4.736;2024-02-16T08:34:02;12.10;;;4.60;;
78489;SDS011;67776;52.012;4.736;2024-02-16T08:36:32;9.77;;;4.80;;
78489;SDS011;67776;52.012;4.736;2024-02-16T08:38:57;13.47;;;4.87;;
78489;SDS011;67776;52.012;4.736;2024-02-16T08:41:22;10.27;;;5.30;;
78489;SDS011;67776;52.012;4.736;2024-02-16T08:43:49;9.63;;;4.80;;
78489;SDS011;67776;52.012;4.736;2024-02-16T08:46:15;10.20;;;5.32;;
78489;SDS011;67776;52.012;4.736;2024-02-16T08:48:41;11.07;;;5.47;;
78489;SDS011;67776;52.012;4.736;2024-02-16T08:51:06;10.43;;;5.20;;
78489;SDS011;67776;52.012;4.736;2024-02-16T08:53:35;11.57;;;5.30;;
78489;SDS011;67776;52.012;4.736;2024-02-16T08:56:01;11.10;;;5.22;;
78489;SDS011;67776;52.012;4.736;2024-02-16T08:58:26;11.37;;;5.43;;
78489;SDS011;67776;52.012;4.736;2024-02-16T09:00:52;11.80;;;5.40;;
78489;SDS011;67776;52.012;4.736;2024-02-16T09:03:17;13.37;;;5.50;;
78489;SDS011;67776;52.012;4.736;2024-02-16T09:05:42;10.70;;;5.43;;
78489;SDS011;67776;52.012;4.736;2024-02-16T09:08:11;11.82;;;5.65;;
78489;SDS011;67776;52.012;4.736;2024-02-16T09:10:36;12.17;;;5.40;;
78489;SDS011;67776;52.012;4.736;2024-02-16T09:13:02;12.27;;;5.40;;
78489;SDS011;67776;52.012;4.736;2024-02-16T09:15:27;11.90;;;6.20;;
78489;SDS011;67776;52.012;4.736;2024-02-16T09:17:52;12.83;;;5.87;;
78489;SDS011;67776;52.012;4.736;2024-02-16T09:20:18;16.00;;;6.07;;
78489;SDS011;67776;52.012;4.736;2024-02-16T09:22:47;12.30;;;6.10;;
78489;SDS011;67776;52.012;4.736;2024-02-16T09:25:13;12.02;;;6.03;;
78489;SDS011;67776;52.012;4.736;2024-02-16T09:27:39;10.82;;;5.63;;
78489;SDS011;67776;52.012;4.736;2024-02-16T09:30:07;11.43;;;5.95;;
78489;SDS011;67776;52.012;4.736;2024-02-16T09:32:32;13.27;;;6.20;;
78489;SDS011;67776;52.012;4.736;2024-02-16T09:34:58;13.90;;;6.43;;
78489;SDS011;67776;52.012;4.736;2024-02-16T09:37:23;15.63;;;7.13;;
78489;SDS011;67776;52.012;4.736;2024-02-16T09:39:48;15.00;;;7.30;;
78489;SDS011;67776;52.012;4.736;2024-02-16T09:42:14;19.43;;;7.90;;
78489;SDS011;67776;52.012;4.736;2024-02-16T09:44:39;15.47;;;7.63;;
78489;SDS011;67776;52.012;4.736;2024-02-16T09:47:06;16.85;;;7.72;;
78489;SDS011;67776;52.012;4.736;2024-02-16T09:49:36;15.13;;;8.00;;
78489;SDS011;67776;52.012;4.736;2024-02-16T09:52:02;17.53;;;8.30;;
78489;SDS011;67776;52.012;4.736;2024-02-16T09:54:30;19.33;;;8.43;;
78489;SDS011;67776;52.012;4.736;2024-02-16T09:56:59;20.60;;;10.13;;
78489;SDS011;67776;52.012;4.736;2024-02-16T09:59:24;21.93;;;11.10;;
78489;SDS011;67776;52.012;4.736;2024-02-16T10:01:58;27.07;;;11.17;;
78489;SDS011;67776;52.012;4.736;2024-02-16T10:04:24;24.95;;;11.80;;
78489;SDS011;67776;52.012;4.736;2024-02-16T10:06:50;24.07;;;10.83;;
78489;SDS011;67776;52.012;4.736;2024-02-16T10:09:25;28.58;;;12.55;;
78489;SDS011;67776;52.012;4.736;2024-02-16T10:11:51;33.72;;;12.70;;
78489;SDS011;67776;52.012;4.736;2024-02-16T10:14:17;23.80;;;11.63;;
78489;SDS011;67776;52.012;4.736;2024-02-16T10:16:44;29.15;;;11.82;;
78489;SDS011;67776;52.012;4.736;2024-02-16T10:19:13;24.95;;;12.48;;
78489;SDS011;67776;52.012;4.736;2024-02-16T10:21:39;28.98;;;12.93;;
78489;SDS011;67776;52.012;4.736;2024-02-16T10:24:05;25.23;;;11.90;;
78489;SDS011;67776;52.012;4.736;2024-02-16T10:26:33;29.27;;;12.13;;
78489;SDS011;67776;52.012;4.736;2024-02-16T10:29:02;32.05;;;12.80;;
78489;SDS011;67776;52.012;4.736;2024-02-16T10:31:29;31.93;;;12.90;;
78489;SDS011;67776;52.012;4.736;2024-02-16T10:33:59;27.75;;;12.48;;
78489;SDS011;67776;52.012;4.736;2024-02-16T10:36:35;24.75;;;11.27;;
78489;SDS011;67776;52.012;4.736;2024-02-16T10:39:01;27.02;;;12.88;;
78489;SDS011;67776;52.012;4.736;2024-02-16T10:41:33;36.20;;;13.75;;
78489;SDS011;67776;52.012;4.736;2024-02-16T10:44:00;27.13;;;12.40;;
78489;SDS011;67776;52.012;4.736;2024-02-16T10:46:27;30.77;;;12.70;;
78489;SDS011;67776;52.012;4.736;2024-02-16T10:48:53;26.13;;;11.97;;
78489;SDS011;67776;52.012;4.736;2024-02-16T10:53:59;23.73;;;11.37;;
78489;SDS011;67776;52.012;4.736;2024-02-16T10:56:32;25.13;;;11.85;;
78489;SDS011;67776;52.012;4.736;2024-02-16T10:59:01;21.08;;;10.98;;
78489;SDS011;67776;52.012;4.736;2024-02-16T11:01:31;18.95;;;10.50;;
78489;SDS011;67776;52.012;4.736;2024-02-16T11:04:00;24.10;;;10.50;;
78489;SDS011;67776;52.012;4.736;2024-02-16T11:06:27;20.03;;;10.20;;
78489;SDS011;67776;52.012;4.736;2024-02-16T11:08:53;21.77;;;10.77;;
78489;SDS011;67776;52.012;4.736;2024-02-16T11:11:22;23.15;;;10.52;;
78489;SDS011;67776;52.012;4.736;2024-02-16T11:13:48;26.77;;;12.05;;
78489;SDS011;67776;52.012;4.736;2024-02-16T11:16:13;24.37;;;10.83;;
78489;SDS011;67776;52.012;4.736;2024-02-16T11:18:43;24.98;;;11.70;;
78489;SDS011;67776;52.012;4.736;2024-02-16T11:21:13;27.08;;;12.05;;
78489;SDS011;67776;52.012;4.736;2024-02-16T11:23:39;24.05;;;12.25;;
78489;SDS011;67776;52.012;4.736;2024-02-16T11:26:05;27.37;;;13.03;;
78489;SDS011;67776;52.012;4.736;2024-02-16T11:28:36;24.45;;;11.82;;
78489;SDS011;67776;52.012;4.736;2024-02-16T11:31:02;28.67;;;12.88;;
78489;SDS011;67776;52.012;4.736;2024-02-16T11:33:28;28.20;;;12.37;;
78489;SDS011;67776;52.012;4.736;2024-02-16T11:35:57;25.17;;;11.70;;
78489;SDS011;67776;52.012;4.736;2024-02-16T11:38:25;21.90;;;10.73;;
78489;SDS011;67776;52.012;4.736;2024-02-16T11:43:23;16.80;;;8.32;;
78489;SDS011;67776;52.012;4.736;2024-02-16T11:45:49;15.10;;;7.77;;
78489;SDS011;67776;52.012;4.736;2024-02-16T11:48:27;14.65;;;6.78;;
78489;SDS011;67776;52.012;4.736;2024-02-16T11:51:03;13.05;;;6.30;;
78489;SDS011;67776;52.012;4.736;2024-02-16T11:53:32;14.18;;;6.22;;
78489;SDS011;67776;52.012;4.736;2024-02-16T11:55:57;13.27;;;6.47;;
78489;SDS011;67776;52.012;4.736;2024-02-16T11:58:23;11.50;;;6.25;;
78489;SDS011;67776;52.012;4.736;2024-02-16T12:00:49;12.50;;;6.03;;
78489;SDS011;67776;52.012;4.736;2024-02-16T12:03:22;11.98;;;5.78;;
78489;SDS011;67776;52.012;4.736;2024-02-16T12:05:52;10.47;;;5.13;;
78489;SDS011;67776;52.012;4.736;2024-02-16T12:08:18;11.60;;;4.95;;
78489;SDS011;67776;52.012;4.736;2024-02-16T12:10:44;10.63;;;4.60;;
78489;SDS011;67776;52.012;4.736;2024-02-16T12:13:09;11.03;;;4.83;;
78489;SDS011;67776;52.012;4.736;2024-02-16T12:15:37;9.60;;;4.50;;
78489;SDS011;67776;52.012;4.736;2024-02-16T12:18:03;11.52;;;4.50;;
78489;SDS011;67776;52.012;4.736;2024-02-16T12:20:29;11.48;;;5.28;;
78489;SDS011;67776;52.012;4.736;2024-02-16T12:22:55;9.27;;;5.10;;
78489;SDS011;67776;52.012;4.736;2024-02-16T12:25:21;9.30;;;4.93;;
78489;SDS011;67776;52.012;4.736;2024-02-16T12:27:46;10.13;;;4.60;;
78489;SDS011;67776;52.012;4.736;2024-02-16T12:30:11;9.67;;;4.73;;
78489;SDS011;67776;52.012;4.736;2024-02-16T12:32:37;9.63;;;4.90;;
78489;SDS011;67776;52.012;4.736;2024-02-16T12:35:02;10.23;;;4.83;;
78489;SDS011;67776;52.012;4.736;2024-02-16T12:37:30;9.20;;;4.65;;
78489;SDS011;67776;52.012;4.736;2024-02-16T12:39:55;6.70;;;3.50;;
78489;SDS011;67776;52.012;4.736;2024-02-16T12:42:20;7.20;;;3.43;;
78489;SDS011;67776;52.012;4.736;2024-02-16T12:44:46;7.70;;;3.27;;
78489;SDS011;67776;52.012;4.736;2024-02-16T12:47:11;9.20;;;3.40;;
78489;SDS011;67776;52.012;4.736;2024-02-16T12:49:36;10.83;;;3.70;;
78489;SDS011;67776;52.012;4.736;2024-02-16T12:52:01;7.07;;;3.33;;
78489;SDS011;67776;52.012;4.736;2024-02-16T12:54:27;9.03;;;4.07;;
78489;SDS011;67776;52.012;4.736;2024-02-16T12:56:52;7.37;;;3.70;;
78489;SDS011;67776;52.012;4.736;2024-02-16T12:59:18;7.63;;;3.83;;
78489;SDS011;67776;52.012;4.736;2024-02-16T13:01:44;9.03;;;4.30;;
78489;SDS011;67776;52.012;4.736;2024-02-16T13:04:09;11.47;;;4.93;;
78489;SDS011;67776;52.012;4.736;2024-02-16T13:06:34;10.80;;;4.70;;
78489;SDS011;67776;52.012;4.736;2024-02-16T13:09:00;9.80;;;4.97;;
78489;SDS011;67776;52.012;4.736;2024-02-16T13:11:25;10.47;;;5.10;;
78489;SDS011;67776;52.012;4.736;2024-02-16T13:13:51;13.23;;;5.77;;
78489;SDS011;67776;52.012;4.736;2024-02-16T13:16:16;11.07;;;5.67;;
78489;SDS011;67776;52.012;4.736;2024-02-16T13:18:42;14.02;;;6.20;;
78489;SDS011;67776;52.012;4.736;2024-02-16T13:21:07;11.63;;;6.20;;
78489;SDS011;67776;52.012;4.736;2024-02-16T13:23:33;14.10;;;5.97;;
78489;SDS011;67776;52.012;4.736;2024-02-16T13:25:58;10.23;;;5.90;;
78489;SDS011;67776;52.012;4.736;2024-02-16T13:28:23;11.23;;;5.80;;
78489;SDS011;67776;52.012;4.736;2024-02-16T13:30:49;12.67;;;5.77;;
78489;SDS011;67776;52.012;4.736;2024-02-16T13:33:15;11.10;;;5.77;;
78489;SDS011;67776;52.012;4.736;2024-02-16T13:35:40;11.30;;;5.83;;
78489;SDS011;67776;52.012;4.736;2024-02-16T13:38:05;11.13;;;6.00;;
78489;SDS011;67776;52.012;4.736;2024-02-16T13:40:31;12.00;;;5.80;;
78489;SDS011;67776;52.012;4.736;2024-02-16T13:42:58;13.00;;;6.28;;
78489;SDS011;67776;52.012;4.736;2024-02-16T13:45:27;11.30;;;6.13;;
78489;SDS011;67776;52.012;4.736;2024-02-16T13:47:53;11.60;;;5.80;;
78489;SDS011;67776;52.012;4.736;2024-02-16T13:50:22;10.93;;;5.72;;
78489;SDS011;67776;52.012;4.736;2024-02-16T13:52:47;10.93;;;5.63;;
78489;SDS011;67776;52.012;4.736;2024-02-16T13:55:14;11.57;;;6.05;;
78489;SDS011;67776;52.012;4.736;2024-02-16T13:57:40;13.70;;;6.07;;
78489;SDS011;67776;52.012;4.736;2024-02-16T14:00:05;9.77;;;5.50;;
78489;SDS011;67776;52.012;4.736;2024-02-16T14:02:31;11.80;;;5.93;;
78489;SDS011;67776;52.012;4.736;2024-02-16T14:04:56;12.87;;;6.00;;
78489;SDS011;67776;52.012;4.736;2024-02-16T14:07:23;17.23;;;5.97;;
78489;SDS011;67776;52.012;4.736;2024-02-16T14:09:48;10.37;;;6.00;;
78489;SDS011;67776;52.012;4.736;2024-02-16T14:12:14;10.77;;;5.50;;
78489;SDS011;67776;52.012;4.736;2024-02-16T14:14:39;12.67;;;5.83;;
78489;SDS011;67776;52.012;4.736;2024-02-16T14:17:04;14.33;;;5.67;;
78489;SDS011;67776;52.012;4.736;2024-02-16T14:19:30;10.18;;;5.15;;
78489;SDS011;67776;52.012;4.736;2024-02-16T14:21:55;10.53;;;5.17;;
78489;SDS011;67776;52.012;4.736;2024-02-16T14:24:21;12.02;;;5.63;;
78489;SDS011;67776;52.012;4.736;2024-02-16T14:26:46;10.47;;;6.10;;
78489;SDS011;67776;52.012;4.736;2024-02-16T14:29:12;11.20;;;5.77;;
78489;SDS011;67776;52.012;4.736;2024-02-16T14:31:37;10.40;;;4.97;;
78489;SDS011;67776;52.012;4.736;2024-02-16T14:34:02;12.67;;;5.50;;
78489;SDS011;67776;52.012;4.736;2024-02-16T14:36:27;9.80;;;5.70;;
78489;SDS011;67776;52.012;4.736;2024-02-16T14:38:53;10.50;;;5.53;;